NPV7634 PAHO-PAMC
Flight info
| Callsign | NPV7634 |
|---|---|
| Flight time | 0h 46m |
| Altitude | 34000 |
| Route | TORTE FFITZ J111 WINOR |
| Aircraft | B737/M-SDE2E3FGHIRWXY/LB1 |
Departure
| Time | 2026-05-06 10:03 |
|---|---|
| Airport | Homer Airport (PAHO) |
Arrival
| Time | 2026-05-06 10:49 |
|---|---|
| Airport | McGrath Airport (PAMC) |
| Time | Latitude | Longitude | Altitude | Speed | Heading |
|---|---|---|---|---|---|
| 2026-05-06 09:44 | 59.64309 | -151.49229 | 92 ft | 0 kts | 52° |
| 2026-05-06 09:53 | 59.64309 | -151.49228 | 91 ft | 0 kts | 53° |
| 2026-05-06 10:01 | 59.64316 | -151.49206 | 90 ft | 7 kts | 62° |
| 2026-05-06 10:01 | 59.64289 | -151.49079 | 92 ft | 14 kts | 130° |
| 2026-05-06 10:01 | 59.64204 | -151.48957 | 90 ft | 20 kts | 144° |
| 2026-05-06 10:01 | 59.64114 | -151.48955 | 92 ft | 15 kts | 236° |
| 2026-05-06 10:02 | 59.64049 | -151.49126 | 92 ft | 2 kts | 170° |
| 2026-05-06 10:02 | 59.64060 | -151.49087 | 92 ft | 10 kts | 57° |
| 2026-05-06 10:02 | 59.64246 | -151.48556 | 90 ft | 88 kts | 55° |
| 2026-05-06 10:02 | 59.64737 | -151.47180 | 94 ft | 154 kts | 54° |
| 2026-05-06 10:03 | 59.65405 | -151.45351 | 683 ft | 167 kts | 53° |
| 2026-05-06 10:03 | 59.66322 | -151.43900 | 1442 ft | 177 kts | 14° |
| 2026-05-06 10:03 | 59.67532 | -151.43967 | 2136 ft | 183 kts | 344° |
| 2026-05-06 10:03 | 59.68847 | -151.44587 | 2638 ft | 209 kts | 346° |
| 2026-05-06 10:04 | 59.70383 | -151.45130 | 2907 ft | 238 kts | 347° |
| 2026-05-06 10:04 | 59.72056 | -151.45691 | 3564 ft | 244 kts | 349° |
| 2026-05-06 10:04 | 59.73749 | -151.46266 | 4380 ft | 249 kts | 348° |
| 2026-05-06 10:04 | 59.75508 | -151.46885 | 5000 ft | 267 kts | 348° |
| 2026-05-06 10:05 | 59.77374 | -151.47514 | 5843 ft | 274 kts | 348° |
| 2026-05-06 10:05 | 59.79267 | -151.48133 | 6890 ft | 277 kts | 348° |
| 2026-05-06 10:05 | 59.81185 | -151.48752 | 7842 ft | 280 kts | 349° |
| 2026-05-06 10:05 | 59.83127 | -151.49374 | 8783 ft | 285 kts | 349° |
| 2026-05-06 10:06 | 59.85092 | -151.49995 | 9746 ft | 289 kts | 349° |
| 2026-05-06 10:06 | 59.87104 | -151.50631 | 10460 ft | 300 kts | 350° |
| 2026-05-06 10:06 | 59.89258 | -151.51310 | 10718 ft | 326 kts | 350° |
| 2026-05-06 10:06 | 59.91559 | -151.52037 | 11236 ft | 341 kts | 350° |
| 2026-05-06 10:07 | 59.93920 | -151.52774 | 12067 ft | 345 kts | 351° |
| 2026-05-06 10:07 | 59.96296 | -151.53513 | 13058 ft | 346 kts | 351° |
| 2026-05-06 10:07 | 59.98700 | -151.54269 | 13838 ft | 353 kts | 351° |
| 2026-05-06 10:07 | 60.01151 | -151.55037 | 14575 ft | 359 kts | 351° |
| 2026-05-06 10:08 | 60.03603 | -151.55805 | 15323 ft | 363 kts | 351° |
| 2026-05-06 10:08 | 60.06114 | -151.56596 | 16148 ft | 368 kts | 350° |
| 2026-05-06 10:08 | 60.08670 | -151.57406 | 16871 ft | 376 kts | 350° |
| 2026-05-06 10:08 | 60.11252 | -151.58223 | 17829 ft | 376 kts | 350° |
| 2026-05-06 10:09 | 60.13854 | -151.59041 | 18560 ft | 382 kts | 350° |
| 2026-05-06 10:09 | 60.16502 | -151.59877 | 19160 ft | 387 kts | 350° |
| 2026-05-06 10:09 | 60.19175 | -151.60722 | 19922 ft | 390 kts | 350° |
| 2026-05-06 10:09 | 60.21868 | -151.61573 | 20594 ft | 394 kts | 350° |
| 2026-05-06 10:10 | 60.24605 | -151.62438 | 21180 ft | 400 kts | 350° |
| 2026-05-06 10:10 | 60.27368 | -151.63314 | 21896 ft | 403 kts | 350° |
| 2026-05-06 10:10 | 60.30145 | -151.64199 | 22465 ft | 407 kts | 350° |
| 2026-05-06 10:10 | 60.32977 | -151.65104 | 22467 ft | 416 kts | 350° |
| 2026-05-06 10:11 | 60.35823 | -151.66014 | 22475 ft | 412 kts | 351° |
| 2026-05-06 10:11 | 60.38640 | -151.66915 | 22475 ft | 406 kts | 351° |
| 2026-05-06 10:11 | 60.41432 | -151.67810 | 22472 ft | 406 kts | 351° |
| 2026-05-06 10:11 | 60.44186 | -151.68695 | 22480 ft | 407 kts | 351° |
| 2026-05-06 10:12 | 60.46984 | -151.69596 | 22497 ft | 407 kts | 351° |
| 2026-05-06 10:12 | 60.49785 | -151.70499 | 22502 ft | 408 kts | 351° |
| 2026-05-06 10:12 | 60.52600 | -151.71408 | 22499 ft | 409 kts | 351° |
| 2026-05-06 10:12 | 60.55409 | -151.72317 | 22494 ft | 409 kts | 351° |
| 2026-05-06 10:13 | 60.58222 | -151.73230 | 22501 ft | 410 kts | 351° |
| 2026-05-06 10:13 | 60.61044 | -151.74147 | 22506 ft | 410 kts | 351° |
| 2026-05-06 10:13 | 60.63865 | -151.75066 | 22496 ft | 411 kts | 351° |
| 2026-05-06 10:13 | 60.66688 | -151.75986 | 22492 ft | 411 kts | 351° |
| 2026-05-06 10:14 | 60.69517 | -151.76908 | 22483 ft | 410 kts | 351° |
| 2026-05-06 10:14 | 60.72337 | -151.77829 | 22484 ft | 410 kts | 351° |
| 2026-05-06 10:14 | 60.75154 | -151.78752 | 22483 ft | 410 kts | 351° |
| 2026-05-06 10:14 | 60.77964 | -151.79677 | 22474 ft | 409 kts | 351° |
| 2026-05-06 10:15 | 60.80776 | -151.80603 | 22477 ft | 409 kts | 351° |
| 2026-05-06 10:15 | 60.83596 | -151.81531 | 22483 ft | 410 kts | 351° |
| 2026-05-06 10:15 | 60.86410 | -151.82459 | 22477 ft | 410 kts | 351° |
| 2026-05-06 10:15 | 60.89195 | -151.83379 | 22484 ft | 411 kts | 351° |
| 2026-05-06 10:16 | 60.92018 | -151.84314 | 22480 ft | 411 kts | 351° |
| 2026-05-06 10:16 | 60.94838 | -151.85250 | 22484 ft | 411 kts | 351° |
| 2026-05-06 10:16 | 60.97669 | -151.86192 | 22483 ft | 411 kts | 351° |
| 2026-05-06 10:16 | 61.00492 | -151.87133 | 22476 ft | 411 kts | 351° |
| 2026-05-06 10:17 | 61.03319 | -151.88076 | 22472 ft | 411 kts | 351° |
| 2026-05-06 10:17 | 61.06143 | -151.89019 | 22471 ft | 411 kts | 351° |
| 2026-05-06 10:17 | 61.08962 | -151.89963 | 22478 ft | 411 kts | 351° |
| 2026-05-06 10:17 | 61.11784 | -151.90910 | 22481 ft | 411 kts | 350° |
| 2026-05-06 10:18 | 61.14609 | -151.91860 | 22473 ft | 411 kts | 350° |
| 2026-05-06 10:18 | 61.17411 | -151.93111 | 22498 ft | 414 kts | 342° |
| 2026-05-06 10:18 | 61.20107 | -151.95331 | 22945 ft | 419 kts | 334° |
| 2026-05-06 10:18 | 61.22754 | -151.97876 | 23707 ft | 419 kts | 334° |
| 2026-05-06 10:19 | 61.25387 | -152.00460 | 24335 ft | 420 kts | 333° |
| 2026-05-06 10:19 | 61.28037 | -152.03069 | 24901 ft | 423 kts | 333° |
| 2026-05-06 10:19 | 61.30711 | -152.05690 | 25429 ft | 426 kts | 334° |
| 2026-05-06 10:19 | 61.33403 | -152.08317 | 25955 ft | 429 kts | 334° |
| 2026-05-06 10:20 | 61.36122 | -152.10960 | 26447 ft | 432 kts | 334° |
| 2026-05-06 10:20 | 61.38860 | -152.13615 | 26949 ft | 435 kts | 333° |
| 2026-05-06 10:20 | 61.41576 | -152.16249 | 27436 ft | 438 kts | 333° |
| 2026-05-06 10:20 | 61.44353 | -152.18942 | 27904 ft | 441 kts | 333° |
| 2026-05-06 10:21 | 61.47151 | -152.21664 | 28362 ft | 444 kts | 333° |
| 2026-05-06 10:21 | 61.49952 | -152.24390 | 28856 ft | 446 kts | 334° |
| 2026-05-06 10:21 | 61.52772 | -152.27142 | 29330 ft | 448 kts | 333° |
| 2026-05-06 10:21 | 61.55608 | -152.29918 | 29715 ft | 452 kts | 333° |
| 2026-05-06 10:22 | 61.58456 | -152.32714 | 30186 ft | 451 kts | 333° |
| 2026-05-06 10:22 | 61.61292 | -152.35513 | 30668 ft | 450 kts | 333° |
| 2026-05-06 10:22 | 61.64124 | -152.38305 | 31134 ft | 449 kts | 333° |
| 2026-05-06 10:22 | 61.66961 | -152.41102 | 31538 ft | 450 kts | 333° |
| 2026-05-06 10:23 | 61.69802 | -152.43906 | 31970 ft | 451 kts | 333° |
| 2026-05-06 10:23 | 61.72639 | -152.46716 | 32429 ft | 450 kts | 333° |
| 2026-05-06 10:23 | 61.75469 | -152.49528 | 32863 ft | 450 kts | 333° |
| 2026-05-06 10:23 | 61.78303 | -152.52352 | 33280 ft | 450 kts | 333° |
| 2026-05-06 10:24 | 61.81136 | -152.55177 | 33702 ft | 450 kts | 333° |
| 2026-05-06 10:24 | 61.83946 | -152.57984 | 33897 ft | 454 kts | 333° |
| 2026-05-06 10:24 | 61.89664 | -152.63714 | 33881 ft | 452 kts | 333° |
| 2026-05-06 10:25 | 61.95293 | -152.69379 | 33896 ft | 447 kts | 333° |
| 2026-05-06 10:25 | 62.00920 | -152.75068 | 33904 ft | 449 kts | 333° |
| 2026-05-06 10:26 | 62.06573 | -152.80805 | 33924 ft | 450 kts | 333° |
| 2026-05-06 10:26 | 62.12182 | -152.86800 | 33899 ft | 450 kts | 325° |
| 2026-05-06 10:27 | 62.16840 | -152.95596 | 33908 ft | 447 kts | 307° |
| 2026-05-06 10:27 | 62.20345 | -153.06523 | 33937 ft | 445 kts | 301° |
| 2026-05-06 10:28 | 62.23654 | -153.17475 | 33913 ft | 423 kts | 302° |
| 2026-05-06 10:28 | 62.25231 | -153.22663 | 33934 ft | 408 kts | 302° |
| 2026-05-06 10:28 | 62.26758 | -153.27656 | 33932 ft | 393 kts | 302° |
| 2026-05-06 10:29 | 62.28218 | -153.32417 | 33934 ft | 379 kts | 302° |
| 2026-05-06 10:29 | 62.29644 | -153.37060 | 33930 ft | 366 kts | 302° |
| 2026-05-06 10:29 | 62.31016 | -153.41537 | 33890 ft | 352 kts | 302° |
| 2026-05-06 10:29 | 62.32378 | -153.45993 | 32771 ft | 364 kts | 301° |
| 2026-05-06 10:30 | 62.33778 | -153.50583 | 31853 ft | 370 kts | 301° |
| 2026-05-06 10:30 | 62.35207 | -153.55276 | 30906 ft | 378 kts | 301° |
| 2026-05-06 10:30 | 62.36659 | -153.60055 | 29972 ft | 384 kts | 301° |
| 2026-05-06 10:30 | 62.38125 | -153.64884 | 28858 ft | 387 kts | 301° |
| 2026-05-06 10:31 | 62.39604 | -153.69766 | 27780 ft | 389 kts | 301° |
| 2026-05-06 10:31 | 62.41085 | -153.74662 | 26739 ft | 390 kts | 301° |
| 2026-05-06 10:31 | 62.42565 | -153.79567 | 25964 ft | 389 kts | 300° |
| 2026-05-06 10:31 | 62.44031 | -153.84436 | 25437 ft | 386 kts | 300° |
| 2026-05-06 10:32 | 62.45489 | -153.89284 | 24900 ft | 384 kts | 300° |
| 2026-05-06 10:32 | 62.46939 | -153.94122 | 24371 ft | 382 kts | 300° |
| 2026-05-06 10:32 | 62.48382 | -153.98932 | 23826 ft | 380 kts | 301° |
| 2026-05-06 10:32 | 62.50023 | -154.03436 | 23178 ft | 383 kts | 311° |
| 2026-05-06 10:33 | 62.51953 | -154.07317 | 22552 ft | 383 kts | 315° |
| 2026-05-06 10:33 | 62.53940 | -154.11132 | 21998 ft | 379 kts | 316° |
| 2026-05-06 10:33 | 62.55903 | -154.14884 | 21516 ft | 374 kts | 315° |
| 2026-05-06 10:33 | 62.57845 | -154.18614 | 20982 ft | 371 kts | 315° |
| 2026-05-06 10:34 | 62.59761 | -154.22319 | 20479 ft | 367 kts | 315° |
| 2026-05-06 10:34 | 62.61041 | -154.24804 | 20143 ft | 365 kts | 315° |
| 2026-05-06 10:34 | 62.62919 | -154.28466 | 19651 ft | 361 kts | 315° |
| 2026-05-06 10:34 | 62.64755 | -154.32066 | 19161 ft | 358 kts | 315° |
| 2026-05-06 10:35 | 62.66597 | -154.35692 | 18661 ft | 356 kts | 315° |
| 2026-05-06 10:35 | 62.68426 | -154.39300 | 18167 ft | 353 kts | 315° |
| 2026-05-06 10:35 | 62.70237 | -154.42879 | 17609 ft | 350 kts | 315° |
| 2026-05-06 10:35 | 62.72032 | -154.46432 | 17088 ft | 347 kts | 314° |
| 2026-05-06 10:36 | 62.73807 | -154.49950 | 16628 ft | 343 kts | 314° |
| 2026-05-06 10:36 | 62.75563 | -154.53438 | 16162 ft | 339 kts | 314° |
| 2026-05-06 10:36 | 62.77301 | -154.56897 | 15664 ft | 337 kts | 314° |
| 2026-05-06 10:36 | 62.79025 | -154.60335 | 15183 ft | 334 kts | 314° |
| 2026-05-06 10:37 | 62.80734 | -154.63742 | 14706 ft | 332 kts | 314° |
| 2026-05-06 10:37 | 62.82432 | -154.67135 | 14240 ft | 329 kts | 314° |
| 2026-05-06 10:37 | 62.84114 | -154.70508 | 13772 ft | 327 kts | 314° |
| 2026-05-06 10:37 | 62.85779 | -154.73855 | 13233 ft | 324 kts | 314° |
| 2026-05-06 10:38 | 62.87437 | -154.77188 | 12726 ft | 321 kts | 315° |
| 2026-05-06 10:38 | 62.89077 | -154.80487 | 12257 ft | 319 kts | 315° |
| 2026-05-06 10:38 | 62.90708 | -154.83773 | 11779 ft | 317 kts | 315° |
| 2026-05-06 10:38 | 62.92325 | -154.87038 | 11290 ft | 315 kts | 315° |
| 2026-05-06 10:39 | 62.93934 | -154.90291 | 10829 ft | 313 kts | 315° |
| 2026-05-06 10:39 | 62.95534 | -154.93528 | 10369 ft | 312 kts | 315° |
| 2026-05-06 10:39 | 62.97101 | -154.96709 | 10236 ft | 300 kts | 315° |
| 2026-05-06 10:39 | 62.98607 | -154.99767 | 10090 ft | 289 kts | 315° |
| 2026-05-06 10:40 | 63.00037 | -155.02674 | 9987 ft | 277 kts | 315° |
| 2026-05-06 10:40 | 63.01459 | -155.05571 | 9577 ft | 277 kts | 315° |
| 2026-05-06 10:40 | 63.02848 | -155.08404 | 9227 ft | 275 kts | 315° |
| 2026-05-06 10:40 | 63.04241 | -155.11256 | 8848 ft | 272 kts | 315° |
| 2026-05-06 10:41 | 63.05625 | -155.14085 | 8499 ft | 270 kts | 316° |
| 2026-05-06 10:41 | 63.06985 | -155.16865 | 8350 ft | 261 kts | 316° |
| 2026-05-06 10:41 | 63.08410 | -155.19402 | 7905 ft | 265 kts | 325° |
| 2026-05-06 10:41 | 63.09934 | -155.21662 | 7567 ft | 263 kts | 322° |
| 2026-05-06 10:42 | 63.11329 | -155.24245 | 7216 ft | 261 kts | 315° |
| 2026-05-06 10:42 | 63.12575 | -155.27132 | 6869 ft | 259 kts | 309° |
| 2026-05-06 10:42 | 63.13696 | -155.30246 | 6543 ft | 259 kts | 305° |
| 2026-05-06 10:42 | 63.14708 | -155.33526 | 6196 ft | 258 kts | 301° |
| 2026-05-06 10:43 | 63.15610 | -155.36945 | 5842 ft | 256 kts | 297° |
| 2026-05-06 10:43 | 63.16391 | -155.40475 | 5504 ft | 255 kts | 294° |
| 2026-05-06 10:43 | 63.17044 | -155.44107 | 5170 ft | 253 kts | 289° |
| 2026-05-06 10:44 | 63.17968 | -155.51575 | 4538 ft | 248 kts | 281° |
| 2026-05-06 10:44 | 63.17895 | -155.55231 | 4419 ft | 240 kts | 249° |
| 2026-05-06 10:44 | 63.16900 | -155.58151 | 4210 ft | 238 kts | 216° |
| 2026-05-06 10:44 | 63.15404 | -155.59475 | 3977 ft | 236 kts | 190° |
| 2026-05-06 10:45 | 63.13764 | -155.59719 | 3689 ft | 236 kts | 182° |
| 2026-05-06 10:45 | 63.12120 | -155.59776 | 3397 ft | 236 kts | 182° |
| 2026-05-06 10:45 | 63.10516 | -155.59834 | 3115 ft | 224 kts | 182° |
| 2026-05-06 10:45 | 63.09037 | -155.59907 | 3000 ft | 202 kts | 183° |
| 2026-05-06 10:46 | 63.07691 | -155.59974 | 2856 ft | 184 kts | 183° |
| 2026-05-06 10:46 | 63.06465 | -155.60032 | 2523 ft | 174 kts | 184° |
| 2026-05-06 10:46 | 63.05304 | -155.60090 | 2206 ft | 161 kts | 184° |
| 2026-05-06 10:46 | 63.04240 | -155.60145 | 1990 ft | 144 kts | 184° |
| 2026-05-06 10:47 | 63.03285 | -155.60196 | 1797 ft | 135 kts | 184° |
| 2026-05-06 10:47 | 63.02359 | -155.60322 | 1590 ft | 132 kts | 187° |
| 2026-05-06 10:47 | 63.01417 | -155.60484 | 1444 ft | 137 kts | 183° |
| 2026-05-06 10:47 | 63.00472 | -155.60465 | 1283 ft | 135 kts | 180° |
| 2026-05-06 10:48 | 62.99534 | -155.60476 | 1097 ft | 134 kts | 182° |
| 2026-05-06 10:48 | 62.98589 | -155.60479 | 894 ft | 136 kts | 180° |
| 2026-05-06 10:48 | 62.97649 | -155.60461 | 718 ft | 136 kts | 180° |
| 2026-05-06 10:48 | 62.96711 | -155.60436 | 554 ft | 134 kts | 181° |
| 2026-05-06 10:49 | 62.95800 | -155.60430 | 373 ft | 128 kts | 181° |
| 2026-05-06 10:49 | 62.95036 | -155.60427 | 348 ft | 82 kts | 180° |
| 2026-05-06 10:49 | 62.94662 | -155.60427 | 350 ft | 17 kts | 179° |
| 2026-05-06 10:49 | 62.94611 | -155.60426 | 348 ft | 0 kts | 179° |
| 2026-05-06 10:50 | 62.94608 | -155.60428 | 348 ft | 1 kts | 192° |
| 2026-05-06 10:50 | 62.94586 | -155.60451 | 351 ft | 5 kts | 196° |
| 2026-05-06 10:50 | 62.94579 | -155.60442 | 354 ft | 3 kts | 51° |
| 2026-05-06 10:50 | 62.94641 | -155.60424 | 351 ft | 13 kts | 6° |
| 2026-05-06 10:51 | 62.94753 | -155.60430 | 349 ft | 19 kts | 4° |
| 2026-05-06 10:51 | 62.94912 | -155.60426 | 351 ft | 26 kts | 359° |
| 2026-05-06 10:51 | 62.95114 | -155.60427 | 351 ft | 31 kts | 360° |
| 2026-05-06 10:51 | 62.95349 | -155.60428 | 348 ft | 36 kts | 0° |
| 2026-05-06 10:52 | 62.95574 | -155.60425 | 354 ft | 23 kts | 359° |
| 2026-05-06 10:52 | 62.95631 | -155.60426 | 346 ft | 0 kts | 359° |
| 2026-05-06 10:52 | 62.95265 | -155.60080 | 347 ft | 0 kts | 359° |